sensor_id;sensor_type;location;lat;lon;timestamp;pressure;altitude;pressure_sealevel;temperature;humidity
19457;BME280;9867;48.094;11.478;2023-04-12T00:01:37;94786.16;;;5.78;100.00
19457;BME280;9867;48.094;11.478;2023-04-12T00:04:05;94786.81;;;6.10;100.00
19457;BME280;9867;48.094;11.478;2023-04-12T00:06:35;94790.81;;;6.19;100.00
19457;BME280;9867;48.094;11.478;2023-04-12T00:09:03;94795.66;;;6.29;100.00
19457;BME280;9867;48.094;11.478;2023-04-12T00:11:30;94795.81;;;6.27;100.00
19457;BME280;9867;48.094;11.478;2023-04-12T00:13:58;94783.34;;;6.18;100.00
19457;BME280;9867;48.094;11.478;2023-04-12T00:16:26;94786.63;;;6.11;100.00
19457;BME280;9867;48.094;11.478;2023-04-12T00:18:54;94770.81;;;6.16;100.00
19457;BME280;9867;48.094;11.478;2023-04-12T00:21:22;94763.38;;;6.00;100.00
19457;BME280;9867;48.094;11.478;2023-04-12T00:23:55;94766.34;;;6.03;100.00
19457;BME280;9867;48.094;11.478;2023-04-12T00:26:23;94761.09;;;6.05;100.00
19457;BME280;9867;48.094;11.478;2023-04-12T00:28:51;94766.59;;;6.23;100.00
19457;BME280;9867;48.094;11.478;2023-04-12T00:31:19;94745.88;;;6.11;100.00
19457;BME280;9867;48.094;11.478;2023-04-12T00:33:47;94758.81;;;6.10;100.00
19457;BME280;9867;48.094;11.478;2023-04-12T00:36:15;94751.78;;;6.12;100.00
19457;BME280;9867;48.094;11.478;2023-04-12T00:38:43;94747.38;;;6.06;100.00
19457;BME280;9867;48.094;11.478;2023-04-12T00:41:12;94755.28;;;6.11;100.00
19457;BME280;9867;48.094;11.478;2023-04-12T00:43:40;94757.00;;;6.25;100.00
19457;BME280;9867;48.094;11.478;2023-04-12T00:46:08;94748.66;;;6.16;100.00
19457;BME280;9867;48.094;11.478;2023-04-12T00:48:37;94742.59;;;6.18;100.00
19457;BME280;9867;48.094;11.478;2023-04-12T00:51:06;94737.34;;;6.19;100.00
19457;BME280;9867;48.094;11.478;2023-04-12T00:53:35;94732.84;;;6.36;100.00
19457;BME280;9867;48.094;11.478;2023-04-12T00:56:05;94731.66;;;6.38;100.00
19457;BME280;9867;48.094;11.478;2023-04-12T00:58:38;94735.44;;;6.42;100.00
19457;BME280;9867;48.094;11.478;2023-04-12T01:01:07;94726.16;;;6.35;100.00
19457;BME280;9867;48.094;11.478;2023-04-12T01:03:39;94729.69;;;6.34;100.00
19457;BME280;9867;48.094;11.478;2023-04-12T01:06:12;94717.38;;;6.37;100.00
19457;BME280;9867;48.094;11.478;2023-04-12T01:08:51;94718.38;;;6.43;100.00
19457;BME280;9867;48.094;11.478;2023-04-12T01:11:26;94721.00;;;6.49;100.00
19457;BME280;9867;48.094;11.478;2023-04-12T01:14:06;94711.19;;;6.46;100.00
19457;BME280;9867;48.094;11.478;2023-04-12T01:16:41;94712.94;;;6.46;100.00
19457;BME280;9867;48.094;11.478;2023-04-12T01:19:23;94718.47;;;6.49;100.00
19457;BME280;9867;48.094;11.478;2023-04-12T01:22:10;94721.38;;;6.46;100.00
19457;BME280;9867;48.094;11.478;2023-04-12T01:24:50;94709.91;;;6.57;100.00
19457;BME280;9867;48.094;11.478;2023-04-12T01:27:33;94715.19;;;6.56;100.00
19457;BME280;9867;48.094;11.478;2023-04-12T01:30:07;94717.00;;;6.62;100.00
19457;BME280;9867;48.094;11.478;2023-04-12T01:32:35;94712.63;;;6.34;100.00
19457;BME280;9867;48.094;11.478;2023-04-12T01:35:06;94710.75;;;6.43;100.00
19457;BME280;9867;48.094;11.478;2023-04-12T01:37:35;94719.25;;;6.50;100.00
19457;BME280;9867;48.094;11.478;2023-04-12T01:40:04;94709.53;;;6.39;100.00
19457;BME280;9867;48.094;11.478;2023-04-12T01:42:34;94712.91;;;6.25;100.00
19457;BME280;9867;48.094;11.478;2023-04-12T01:45:02;94712.47;;;6.21;100.00
19457;BME280;9867;48.094;11.478;2023-04-12T01:47:31;94720.66;;;6.16;100.00
19457;BME280;9867;48.094;11.478;2023-04-12T01:50:11;94706.16;;;6.32;100.00
19457;BME280;9867;48.094;11.478;2023-04-12T01:52:45;94709.97;;;6.42;100.00
19457;BME280;9867;48.094;11.478;2023-04-12T01:55:17;94709.50;;;6.54;100.00
19457;BME280;9867;48.094;11.478;2023-04-12T01:57:49;94714.94;;;6.29;100.00
19457;BME280;9867;48.094;11.478;2023-04-12T02:00:18;94710.44;;;5.95;100.00
19457;BME280;9867;48.094;11.478;2023-04-12T02:02:47;94702.78;;;5.95;100.00
19457;BME280;9867;48.094;11.478;2023-04-12T02:05:16;94709.28;;;5.83;100.00
19457;BME280;9867;48.094;11.478;2023-04-12T02:07:45;94704.72;;;5.93;100.00
19457;BME280;9867;48.094;11.478;2023-04-12T02:10:26;94703.44;;;6.19;100.00
19457;BME280;9867;48.094;11.478;2023-04-12T02:12:57;94697.69;;;6.10;100.00
19457;BME280;9867;48.094;11.478;2023-04-12T02:15:25;94693.66;;;6.37;100.00
19457;BME280;9867;48.094;11.478;2023-04-12T02:17:53;94698.06;;;6.28;100.00
19457;BME280;9867;48.094;11.478;2023-04-12T02:20:22;94693.34;;;6.25;100.00
19457;BME280;9867;48.094;11.478;2023-04-12T02:22:50;94691.34;;;6.42;100.00
19457;BME280;9867;48.094;11.478;2023-04-12T02:25:20;94691.94;;;6.44;100.00
19457;BME280;9867;48.094;11.478;2023-04-12T02:27:48;94690.84;;;6.10;100.00
19457;BME280;9867;48.094;11.478;2023-04-12T02:30:17;94687.00;;;6.00;100.00
19457;BME280;9867;48.094;11.478;2023-04-12T02:32:50;94686.28;;;6.06;100.00
19457;BME280;9867;48.094;11.478;2023-04-12T02:35:24;94686.28;;;6.06;100.00
19457;BME280;9867;48.094;11.478;2023-04-12T02:37:58;94694.00;;;5.98;100.00
19457;BME280;9867;48.094;11.478;2023-04-12T02:40:28;94697.69;;;5.95;100.00
19457;BME280;9867;48.094;11.478;2023-04-12T02:42:56;94689.03;;;5.75;100.00
19457;BME280;9867;48.094;11.478;2023-04-12T02:45:27;94683.06;;;5.82;100.00
19457;BME280;9867;48.094;11.478;2023-04-12T02:47:55;94690.88;;;5.66;100.00
19457;BME280;9867;48.094;11.478;2023-04-12T02:50:27;94678.94;;;5.81;100.00
19457;BME280;9867;48.094;11.478;2023-04-12T02:53:08;94670.59;;;5.73;100.00
19457;BME280;9867;48.094;11.478;2023-04-12T02:55:37;94667.97;;;5.81;100.00
19457;BME280;9867;48.094;11.478;2023-04-12T02:58:07;94669.53;;;5.82;100.00
19457;BME280;9867;48.094;11.478;2023-04-12T03:00:44;94662.28;;;5.64;100.00
19457;BME280;9867;48.094;11.478;2023-04-12T03:03:14;94670.59;;;5.73;100.00
19457;BME280;9867;48.094;11.478;2023-04-12T03:05:45;94667.19;;;5.51;100.00
19457;BME280;9867;48.094;11.478;2023-04-12T03:08:15;94651.25;;;5.42;100.00
19457;BME280;9867;48.094;11.478;2023-04-12T03:10:50;94650.88;;;5.45;100.00
19457;BME280;9867;48.094;11.478;2023-04-12T03:13:18;94639.66;;;5.55;100.00
19457;BME280;9867;48.094;11.478;2023-04-12T03:15:55;94633.00;;;5.54;100.00
19457;BME280;9867;48.094;11.478;2023-04-12T03:18:30;94630.97;;;5.49;100.00
19457;BME280;9867;48.094;11.478;2023-04-12T03:20:58;94631.31;;;5.46;100.00
19457;BME280;9867;48.094;11.478;2023-04-12T03:23:28;94614.06;;;5.41;100.00
19457;BME280;9867;48.094;11.478;2023-04-12T03:26:05;94610.72;;;5.26;100.00
19457;BME280;9867;48.094;11.478;2023-04-12T03:28:34;94603.81;;;5.35;100.00
19457;BME280;9867;48.094;11.478;2023-04-12T03:31:06;94603.81;;;5.35;100.00
19457;BME280;9867;48.094;11.478;2023-04-12T03:33:40;94606.06;;;5.44;100.00
19457;BME280;9867;48.094;11.478;2023-04-12T03:36:17;94606.94;;;5.52;100.00
19457;BME280;9867;48.094;11.478;2023-04-12T03:38:51;94610.09;;;5.54;100.00
19457;BME280;9867;48.094;11.478;2023-04-12T03:41:20;94603.47;;;5.38;100.00
19457;BME280;9867;48.094;11.478;2023-04-12T03:43:48;94593.16;;;5.61;100.00
19457;BME280;9867;48.094;11.478;2023-04-12T03:46:18;94598.28;;;5.67;100.00
19457;BME280;9867;48.094;11.478;2023-04-12T03:48:53;94593.16;;;5.46;100.00
19457;BME280;9867;48.094;11.478;2023-04-12T03:51:23;94580.31;;;5.33;100.00
19457;BME280;9867;48.094;11.478;2023-04-12T03:53:57;94589.25;;;5.29;100.00
19457;BME280;9867;48.094;11.478;2023-04-12T03:56:32;94582.50;;;5.21;100.00
19457;BME280;9867;48.094;11.478;2023-04-12T03:59:04;94577.97;;;5.17;100.00
19457;BME280;9867;48.094;11.478;2023-04-12T04:01:35;94570.59;;;5.07;100.00
19457;BME280;9867;48.094;11.478;2023-04-12T04:04:03;94563.16;;;5.05;100.00
19457;BME280;9867;48.094;11.478;2023-04-12T04:06:32;94546.97;;;4.92;100.00
19457;BME280;9867;48.094;11.478;2023-04-12T04:09:00;94560.09;;;4.95;100.00
19457;BME280;9867;48.094;11.478;2023-04-12T04:11:31;94546.31;;;5.04;100.00
19457;BME280;9867;48.094;11.478;2023-04-12T04:14:05;94546.00;;;4.93;100.00
19457;BME280;9867;48.094;11.478;2023-04-12T04:16:34;94540.97;;;4.99;100.00
19457;BME280;9867;48.094;11.478;2023-04-12T04:19:05;94534.75;;;5.02;100.00
19457;BME280;9867;48.094;11.478;2023-04-12T04:21:32;94539.56;;;5.11;100.00
19457;BME280;9867;48.094;11.478;2023-04-12T04:24:01;94535.78;;;5.22;100.00
19457;BME280;9867;48.094;11.478;2023-04-12T04:26:34;94531.69;;;5.06;100.00
19457;BME280;9867;48.094;11.478;2023-04-12T04:29:13;94537.22;;;5.10;100.00
19457;BME280;9867;48.094;11.478;2023-04-12T04:31:42;94527.22;;;5.08;100.00
19457;BME280;9867;48.094;11.478;2023-04-12T04:34:13;94535.91;;;5.14;100.00
19457;BME280;9867;48.094;11.478;2023-04-12T04:36:44;94546.06;;;5.14;100.00
19457;BME280;9867;48.094;11.478;2023-04-12T04:39:19;94529.16;;;5.06;100.00
19457;BME280;9867;48.094;11.478;2023-04-12T04:41:49;94520.16;;;5.25;100.00
19457;BME280;9867;48.094;11.478;2023-04-12T04:44:33;94529.38;;;5.26;100.00
19457;BME280;9867;48.094;11.478;2023-04-12T04:47:06;94524.94;;;5.13;100.00
19457;BME280;9867;48.094;11.478;2023-04-12T04:49:34;94518.28;;;5.12;100.00
19457;BME280;9867;48.094;11.478;2023-04-12T04:52:08;94513.09;;;5.06;100.00
19457;BME280;9867;48.094;11.478;2023-04-12T04:54:36;94509.41;;;5.08;100.00
19457;BME280;9867;48.094;11.478;2023-04-12T04:57:06;94505.75;;;5.11;100.00
19457;BME280;9867;48.094;11.478;2023-04-12T04:59:38;94503.50;;;5.23;100.00
19457;BME280;9867;48.094;11.478;2023-04-12T05:02:14;94495.91;;;5.44;100.00
19457;BME280;9867;48.094;11.478;2023-04-12T05:04:43;94505.97;;;5.52;100.00
19457;BME280;9867;48.094;11.478;2023-04-12T05:07:15;94499.63;;;5.41;100.00
19457;BME280;9867;48.094;11.478;2023-04-12T05:09:45;94500.16;;;5.37;100.00
19457;BME280;9867;48.094;11.478;2023-04-12T05:12:14;94493.16;;;5.60;100.00
19457;BME280;9867;48.094;11.478;2023-04-12T05:14:47;94501.59;;;5.46;100.00
19457;BME280;9867;48.094;11.478;2023-04-12T05:17:19;94492.28;;;5.53;100.00
19457;BME280;9867;48.094;11.478;2023-04-12T05:19:47;94491.41;;;5.61;100.00
19457;BME280;9867;48.094;11.478;2023-04-12T05:22:15;94494.91;;;5.38;100.00
19457;BME280;9867;48.094;11.478;2023-04-12T05:24:46;94480.25;;;5.62;100.00
19457;BME280;9867;48.094;11.478;2023-04-12T05:27:14;94480.78;;;5.57;100.00
19457;BME280;9867;48.094;11.478;2023-04-12T05:29:44;94474.84;;;5.71;100.00
19457;BME280;9867;48.094;11.478;2023-04-12T05:32:14;94466.84;;;5.74;100.00
19457;BME280;9867;48.094;11.478;2023-04-12T05:34:43;94477.44;;;5.78;100.00
19457;BME280;9867;48.094;11.478;2023-04-12T05:37:11;94459.56;;;5.71;100.00
19457;BME280;9867;48.094;11.478;2023-04-12T05:39:41;94472.97;;;5.80;100.00
19457;BME280;9867;48.094;11.478;2023-04-12T05:42:09;94463.25;;;5.69;100.00
19457;BME280;9867;48.094;11.478;2023-04-12T05:44:37;94460.66;;;5.83;100.00
19457;BME280;9867;48.094;11.478;2023-04-12T05:47:09;94459.88;;;5.83;100.00
19457;BME280;9867;48.094;11.478;2023-04-12T05:49:38;94457.16;;;5.85;100.00
19457;BME280;9867;48.094;11.478;2023-04-12T05:52:09;94461.50;;;5.91;100.00
19457;BME280;9867;48.094;11.478;2023-04-12T05:54:38;94457.69;;;6.01;100.00
19457;BME280;9867;48.094;11.478;2023-04-12T05:57:11;94456.47;;;5.97;100.00
19457;BME280;9867;48.094;11.478;2023-04-12T05:59:40;94443.16;;;5.95;100.00
19457;BME280;9867;48.094;11.478;2023-04-12T06:02:08;94445.38;;;6.05;100.00
19457;BME280;9867;48.094;11.478;2023-04-12T06:04:37;94443.50;;;6.20;100.00
19457;BME280;9867;48.094;11.478;2023-04-12T06:07:20;94443.50;;;6.13;100.00
19457;BME280;9867;48.094;11.478;2023-04-12T06:09:48;94439.84;;;7.18;100.00
19457;BME280;9867;48.094;11.478;2023-04-12T06:12:17;94467.44;;;7.95;100.00
19457;BME280;9867;48.094;11.478;2023-04-12T06:14:45;94471.94;;;8.26;100.00
19457;BME280;9867;48.094;11.478;2023-04-12T06:17:13;94472.31;;;8.30;100.00
19457;BME280;9867;48.094;11.478;2023-04-12T06:19:42;94466.25;;;7.98;100.00
19457;BME280;9867;48.094;11.478;2023-04-12T06:22:10;94460.75;;;8.34;100.00
19457;BME280;9867;48.094;11.478;2023-04-12T06:24:40;94458.88;;;8.80;100.00
19457;BME280;9867;48.094;11.478;2023-04-12T06:27:10;94453.66;;;8.23;100.00
19457;BME280;9867;48.094;11.478;2023-04-12T06:29:38;94457.75;;;8.30;100.00
19457;BME280;9867;48.094;11.478;2023-04-12T06:32:06;94447.00;;;7.69;100.00
19457;BME280;9867;48.094;11.478;2023-04-12T06:34:37;94443.28;;;7.98;100.00
19457;BME280;9867;48.094;11.478;2023-04-12T06:37:10;94443.06;;;8.19;100.00
19457;BME280;9867;48.094;11.478;2023-04-12T06:39:38;94433.22;;;8.23;100.00
19457;BME280;9867;48.094;11.478;2023-04-12T06:42:07;94433.19;;;8.29;100.00
19457;BME280;9867;48.094;11.478;2023-04-12T06:44:38;94432.59;;;8.27;100.00
19457;BME280;9867;48.094;11.478;2023-04-12T06:47:08;94431.34;;;8.76;100.00
19457;BME280;9867;48.094;11.478;2023-04-12T06:49:37;94428.44;;;8.66;100.00
19457;BME280;9867;48.094;11.478;2023-04-12T06:52:04;94415.38;;;7.83;100.00
19457;BME280;9867;48.094;11.478;2023-04-12T06:54:35;94408.88;;;7.41;100.00
19457;BME280;9867;48.094;11.478;2023-04-12T06:57:03;94392.94;;;7.19;100.00
19457;BME280;9867;48.094;11.478;2023-04-12T06:59:36;94390.19;;;7.07;100.00
19457;BME280;9867;48.094;11.478;2023-04-12T07:02:04;94394.31;;;7.08;100.00
19457;BME280;9867;48.094;11.478;2023-04-12T07:04:33;94389.56;;;6.99;100.00
19457;BME280;9867;48.094;11.478;2023-04-12T07:07:01;94383.72;;;7.11;100.00
19457;BME280;9867;48.094;11.478;2023-04-12T07:09:29;94384.88;;;7.09;100.00
19457;BME280;9867;48.094;11.478;2023-04-12T07:11:57;94379.78;;;7.15;100.00
19457;BME280;9867;48.094;11.478;2023-04-12T07:14:25;94386.81;;;6.94;100.00
19457;BME280;9867;48.094;11.478;2023-04-12T07:16:54;94379.53;;;6.84;100.00
19457;BME280;9867;48.094;11.478;2023-04-12T07:19:22;94379.00;;;7.02;100.00
19457;BME280;9867;48.094;11.478;2023-04-12T07:21:50;94381.91;;;6.92;100.00
19457;BME280;9867;48.094;11.478;2023-04-12T07:24:18;94384.44;;;6.92;100.00
19457;BME280;9867;48.094;11.478;2023-04-12T07:26:46;94378.44;;;7.33;100.00
19457;BME280;9867;48.094;11.478;2023-04-12T07:29:13;94383.19;;;7.49;100.00
19457;BME280;9867;48.094;11.478;2023-04-12T07:31:42;94378.44;;;7.26;100.00
19457;BME280;9867;48.094;11.478;2023-04-12T07:34:12;94366.50;;;7.46;100.00
19457;BME280;9867;48.094;11.478;2023-04-12T07:36:42;94366.09;;;7.69;100.00
19457;BME280;9867;48.094;11.478;2023-04-12T07:39:10;94358.59;;;7.81;100.00
19457;BME280;9867;48.094;11.478;2023-04-12T07:41:38;94366.06;;;7.82;100.00
19457;BME280;9867;48.094;11.478;2023-04-12T07:44:07;94366.69;;;7.78;100.00
19457;BME280;9867;48.094;11.478;2023-04-12T07:46:35;94353.31;;;7.89;100.00
19457;BME280;9867;48.094;11.478;2023-04-12T07:49:03;94347.41;;;7.95;100.00
19457;BME280;9867;48.094;11.478;2023-04-12T07:51:32;94334.22;;;8.05;100.00
19457;BME280;9867;48.094;11.478;2023-04-12T07:54:00;94329.28;;;8.10;100.00
19457;BME280;9867;48.094;11.478;2023-04-12T07:56:29;94339.09;;;8.13;100.00
19457;BME280;9867;48.094;11.478;2023-04-12T07:58:57;94319.44;;;8.20;100.00
19457;BME280;9867;48.094;11.478;2023-04-12T08:01:25;94326.72;;;8.23;100.00
19457;BME280;9867;48.094;11.478;2023-04-12T08:03:53;94330.41;;;8.27;100.00
19457;BME280;9867;48.094;11.478;2023-04-12T08:06:22;94337.53;;;8.18;100.00
19457;BME280;9867;48.094;11.478;2023-04-12T08:08:54;94326.72;;;8.16;100.00
19457;BME280;9867;48.094;11.478;2023-04-12T08:11:22;94330.06;;;8.10;100.00
19457;BME280;9867;48.094;11.478;2023-04-12T08:13:49;94320.44;;;8.06;100.00
19457;BME280;9867;48.094;11.478;2023-04-12T08:16:17;94315.88;;;8.28;100.00
19457;BME280;9867;48.094;11.478;2023-04-12T08:18:45;94312.53;;;8.27;100.00
19457;BME280;9867;48.094;11.478;2023-04-12T08:21:13;94313.75;;;8.11;100.00
19457;BME280;9867;48.094;11.478;2023-04-12T08:23:41;94309.81;;;8.15;100.00
19457;BME280;9867;48.094;11.478;2023-04-12T08:26:10;94296.00;;;8.30;100.00
19457;BME280;9867;48.094;11.478;2023-04-12T08:28:38;94294.44;;;8.35;100.00
19457;BME280;9867;48.094;11.478;2023-04-12T08:31:06;94276.75;;;8.27;100.00
19457;BME280;9867;48.094;11.478;2023-04-12T08:33:34;94279.31;;;8.27;100.00
19457;BME280;9867;48.094;11.478;2023-04-12T08:36:03;94269.88;;;8.28;100.00
19457;BME280;9867;48.094;11.478;2023-04-12T08:38:31;94271.22;;;8.43;100.00
19457;BME280;9867;48.094;11.478;2023-04-12T08:41:12;94266.31;;;8.42;100.00
19457;BME280;9867;48.094;11.478;2023-04-12T08:43:43;94261.69;;;8.64;100.00
19457;BME280;9867;48.094;11.478;2023-04-12T08:46:12;94256.19;;;8.60;100.00
19457;BME280;9867;48.094;11.478;2023-04-12T08:48:43;94248.66;;;8.72;100.00
19457;BME280;9867;48.094;11.478;2023-04-12T08:51:12;94230.59;;;8.67;100.00
19457;BME280;9867;48.094;11.478;2023-04-12T08:53:40;94233.72;;;8.69;100.00
19457;BME280;9867;48.094;11.478;2023-04-12T08:56:09;94240.66;;;8.62;100.00
19457;BME280;9867;48.094;11.478;2023-04-12T08:58:40;94230.75;;;8.72;100.00
19457;BME280;9867;48.094;11.478;2023-04-12T09:01:10;94222.97;;;8.85;100.00
19457;BME280;9867;48.094;11.478;2023-04-12T09:03:40;94225.13;;;9.13;100.00
19457;BME280;9867;48.094;11.478;2023-04-12T09:06:09;94221.75;;;9.19;100.00
19457;BME280;9867;48.094;11.478;2023-04-12T09:08:50;94222.13;;;9.41;100.00
19457;BME280;9867;48.094;11.478;2023-04-12T09:11:23;94209.63;;;9.51;100.00
19457;BME280;9867;48.094;11.478;2023-04-12T09:13:53;94226.19;;;9.48;100.00
19457;BME280;9867;48.094;11.478;2023-04-12T09:16:33;94232.75;;;9.44;100.00
19457;BME280;9867;48.094;11.478;2023-04-12T09:19:01;94217.59;;;9.61;100.00
19457;BME280;9867;48.094;11.478;2023-04-12T09:21:30;94228.25;;;10.13;100.00
19457;BME280;9867;48.094;11.478;2023-04-12T09:24:04;94221.63;;;10.23;100.00
19457;BME280;9867;48.094;11.478;2023-04-12T09:26:39;94218.78;;;10.32;100.00
19457;BME280;9867;48.094;11.478;2023-04-12T09:29:21;94214.28;;;10.57;100.00
19457;BME280;9867;48.094;11.478;2023-04-12T09:31:59;94207.88;;;10.78;100.00
19457;BME280;9867;48.094;11.478;2023-04-12T09:34:28;94215.16;;;10.92;100.00
19457;BME280;9867;48.094;11.478;2023-04-12T09:36:56;94208.69;;;11.13;100.00
19457;BME280;9867;48.094;11.478;2023-04-12T09:39:31;94203.13;;;11.51;100.00
19457;BME280;9867;48.094;11.478;2023-04-12T09:42:03;94188.34;;;11.58;100.00
19457;BME280;9867;48.094;11.478;2023-04-12T09:44:42;94197.88;;;11.23;100.00
19457;BME280;9867;48.094;11.478;2023-04-12T09:47:09;94186.81;;;11.34;100.00
19457;BME280;9867;48.094;11.478;2023-04-12T09:49:38;94175.44;;;11.42;100.00
19457;BME280;9867;48.094;11.478;2023-04-12T09:52:08;94164.75;;;11.33;100.00
19457;BME280;9867;48.094;11.478;2023-04-12T09:54:39;94165.63;;;11.27;100.00
19457;BME280;9867;48.094;11.478;2023-04-12T09:57:09;94155.09;;;11.52;100.00
19457;BME280;9867;48.094;11.478;2023-04-12T09:59:38;94160.31;;;11.80;100.00
19457;BME280;9867;48.094;11.478;2023-04-12T10:02:14;94159.41;;;11.86;100.00
19457;BME280;9867;48.094;11.478;2023-04-12T10:04:44;94156.50;;;11.83;100.00
19457;BME280;9867;48.094;11.478;2023-04-12T10:07:12;94166.22;;;12.21;100.00
19457;BME280;9867;48.094;11.478;2023-04-12T10:09:41;94151.56;;;12.21;100.00
19457;BME280;9867;48.094;11.478;2023-04-12T10:12:09;94146.66;;;12.20;100.00
19457;BME280;9867;48.094;11.478;2023-04-12T10:14:37;94143.47;;;12.29;100.00
19457;BME280;9867;48.094;11.478;2023-04-12T10:17:09;94142.69;;;12.29;100.00
19457;BME280;9867;48.094;11.478;2023-04-12T10:19:38;94144.22;;;12.58;100.00
19457;BME280;9867;48.094;11.478;2023-04-12T10:22:06;94137.28;;;12.92;100.00
19457;BME280;9867;48.094;11.478;2023-04-12T10:24:34;94144.59;;;13.01;100.00
19457;BME280;9867;48.094;11.478;2023-04-12T10:27:03;94144.47;;;12.74;100.00
19457;BME280;9867;48.094;11.478;2023-04-12T10:29:36;94128.38;;;12.83;100.00
19457;BME280;9867;48.094;11.478;2023-04-12T10:32:20;94116.34;;;13.06;100.00
19457;BME280;9867;48.094;11.478;2023-04-12T10:34:52;94116.97;;;13.29;100.00
19457;BME280;9867;48.094;11.478;2023-04-12T10:40:15;94122.34;;;13.28;100.00
19457;BME280;9867;48.094;11.478;2023-04-12T10:42:44;94117.66;;;13.63;100.00
19457;BME280;9867;48.094;11.478;2023-04-12T10:45:34;94111.72;;;14.12;100.00
19457;BME280;9867;48.094;11.478;2023-04-12T10:48:04;94106.22;;;14.30;100.00
19457;BME280;9867;48.094;11.478;2023-04-12T10:50:32;94090.22;;;14.55;100.00
19457;BME280;9867;48.094;11.478;2023-04-12T10:53:24;94108.75;;;14.84;100.00
19457;BME280;9867;48.094;11.478;2023-04-12T10:55:52;94101.47;;;14.76;100.00
19457;BME280;9867;48.094;11.478;2023-04-12T11:01:35;94098.00;;;14.65;100.00
19457;BME280;9867;48.094;11.478;2023-04-12T11:04:11;94097.28;;;14.38;100.00
19457;BME280;9867;48.094;11.478;2023-04-12T11:06:54;94113.25;;;14.61;100.00
19457;BME280;9867;48.094;11.478;2023-04-12T11:09:39;94106.13;;;14.47;100.00
19457;BME280;9867;48.094;11.478;2023-04-12T11:12:14;94083.53;;;14.59;100.00
19457;BME280;9867;48.094;11.478;2023-04-12T11:14:44;94092.09;;;14.38;100.00
19457;BME280;9867;48.094;11.478;2023-04-12T11:17:20;94084.03;;;14.56;100.00
19457;BME280;9867;48.094;11.478;2023-04-12T11:19:53;94074.88;;;14.43;100.00
19457;BME280;9867;48.094;11.478;2023-04-12T11:22:23;94082.69;;;14.90;100.00
19457;BME280;9867;48.094;11.478;2023-04-12T11:24:53;94070.63;;;15.01;100.00
19457;BME280;9867;48.094;11.478;2023-04-12T11:27:23;94078.72;;;15.15;100.00
19457;BME280;9867;48.094;11.478;2023-04-12T11:29:52;94071.13;;;14.98;100.00
19457;BME280;9867;48.094;11.478;2023-04-12T11:32:22;94074.28;;;14.63;100.00
19457;BME280;9867;48.094;11.478;2023-04-12T11:34:54;94057.44;;;14.28;100.00
19457;BME280;9867;48.094;11.478;2023-04-12T11:37:23;94064.94;;;14.57;100.00
19457;BME280;9867;48.094;11.478;2023-04-12T11:39:54;94054.41;;;14.68;100.00
19457;BME280;9867;48.094;11.478;2023-04-12T11:42:24;94037.66;;;14.71;100.00
19457;BME280;9867;48.094;11.478;2023-04-12T11:44:53;94046.41;;;15.12;100.00
19457;BME280;9867;48.094;11.478;2023-04-12T11:47:28;94044.59;;;15.13;100.00
19457;BME280;9867;48.094;11.478;2023-04-12T11:49:58;94039.41;;;14.60;100.00
19457;BME280;9867;48.094;11.478;2023-04-12T11:52:30;94053.09;;;14.66;100.00
19457;BME280;9867;48.094;11.478;2023-04-12T11:55:00;94047.69;;;14.67;100.00
19457;BME280;9867;48.094;11.478;2023-04-12T11:57:31;94047.06;;;14.92;100.00
19457;BME280;9867;48.094;11.478;2023-04-12T12:00:00;94050.66;;;14.49;100.00
19457;BME280;9867;48.094;11.478;2023-04-12T12:02:37;94038.25;;;14.83;100.00
19457;BME280;9867;48.094;11.478;2023-04-12T12:05:23;94041.94;;;14.97;100.00
19457;BME280;9867;48.094;11.478;2023-04-12T12:07:51;94046.53;;;14.85;100.00
19457;BME280;9867;48.094;11.478;2023-04-12T12:10:20;94042.28;;;14.64;100.00
19457;BME280;9867;48.094;11.478;2023-04-12T12:13:09;94036.41;;;15.26;100.00
19457;BME280;9867;48.094;11.478;2023-04-12T12:15:38;94055.34;;;14.94;100.00
19457;BME280;9867;48.094;11.478;2023-04-12T12:18:06;94054.44;;;15.16;100.00
19457;BME280;9867;48.094;11.478;2023-04-12T12:20:40;94030.47;;;15.25;100.00
19457;BME280;9867;48.094;11.478;2023-04-12T12:23:08;94028.44;;;15.38;100.00
19457;BME280;9867;48.094;11.478;2023-04-12T12:25:36;94031.91;;;15.63;100.00
19457;BME280;9867;48.094;11.478;2023-04-12T12:28:07;94035.34;;;15.94;100.00
19457;BME280;9867;48.094;11.478;2023-04-12T12:30:41;94040.53;;;15.99;100.00
19457;BME280;9867;48.094;11.478;2023-04-12T12:33:08;94046.13;;;15.66;100.00
19457;BME280;9867;48.094;11.478;2023-04-12T12:35:36;94039.06;;;15.46;100.00
19457;BME280;9867;48.094;11.478;2023-04-12T12:38:06;94050.44;;;14.93;100.00
19457;BME280;9867;48.094;11.478;2023-04-12T12:40:36;94042.06;;;15.23;100.00
19457;BME280;9867;48.094;11.478;2023-04-12T12:43:06;94037.47;;;15.30;100.00
19457;BME280;9867;48.094;11.478;2023-04-12T12:45:34;94028.53;;;15.63;100.00
19457;BME280;9867;48.094;11.478;2023-04-12T12:48:04;94016.72;;;15.82;100.00
19457;BME280;9867;48.094;11.478;2023-04-12T12:50:33;94030.81;;;15.49;100.00
19457;BME280;9867;48.094;11.478;2023-04-12T12:53:02;94021.66;;;15.21;100.00
19457;BME280;9867;48.094;11.478;2023-04-12T12:55:33;94030.66;;;15.09;100.00
19457;BME280;9867;48.094;11.478;2023-04-12T12:58:00;94037.22;;;15.36;100.00
19457;BME280;9867;48.094;11.478;2023-04-12T13:00:34;94026.66;;;15.43;100.00
19457;BME280;9867;48.094;11.478;2023-04-12T13:03:02;94015.66;;;15.06;100.00
19457;BME280;9867;48.094;11.478;2023-04-12T13:05:30;94023.22;;;14.75;100.00
19457;BME280;9867;48.094;11.478;2023-04-12T13:07:58;94006.59;;;15.03;100.00
19457;BME280;9867;48.094;11.478;2023-04-12T13:10:26;94003.06;;;15.24;100.00
19457;BME280;9867;48.094;11.478;2023-04-12T13:12:55;94004.88;;;15.24;100.00
19457;BME280;9867;48.094;11.478;2023-04-12T13:15:24;94004.16;;;15.44;100.00
19457;BME280;9867;48.094;11.478;2023-04-12T13:17:52;93999.53;;;15.51;100.00
19457;BME280;9867;48.094;11.478;2023-04-12T13:20:20;94005.25;;;14.95;100.00
19457;BME280;9867;48.094;11.478;2023-04-12T13:22:49;94008.25;;;14.77;100.00